sensor_id;sensor_type;location;lat;lon;timestamp;pressure;altitude;pressure_sealevel;temperature;humidity
11936;BME280;6027;48.576;9.180;2022-10-16T00:00:30;96762.19;;;15.80;100.00
11936;BME280;6027;48.576;9.180;2022-10-16T00:02:55;96755.88;;;15.75;100.00
11936;BME280;6027;48.576;9.180;2022-10-16T00:05:21;96759.28;;;15.82;100.00
11936;BME280;6027;48.576;9.180;2022-10-16T00:07:47;96760.72;;;15.84;100.00
11936;BME280;6027;48.576;9.180;2022-10-16T00:10:12;96757.63;;;15.87;100.00
11936;BME280;6027;48.576;9.180;2022-10-16T00:12:38;96750.22;;;15.89;100.00
11936;BME280;6027;48.576;9.180;2022-10-16T00:15:03;96752.28;;;15.87;100.00
11936;BME280;6027;48.576;9.180;2022-10-16T00:17:29;96757.00;;;15.85;100.00
11936;BME280;6027;48.576;9.180;2022-10-16T00:19:55;96764.81;;;15.87;100.00
11936;BME280;6027;48.576;9.180;2022-10-16T00:22:20;96767.53;;;15.80;100.00
11936;BME280;6027;48.576;9.180;2022-10-16T00:24:46;96769.84;;;15.77;100.00
11936;BME280;6027;48.576;9.180;2022-10-16T00:27:11;96770.66;;;15.77;100.00
11936;BME280;6027;48.576;9.180;2022-10-16T00:29:36;96781.31;;;15.77;100.00
11936;BME280;6027;48.576;9.180;2022-10-16T00:32:02;96778.81;;;15.82;100.00
11936;BME280;6027;48.576;9.180;2022-10-16T00:34:28;96771.06;;;15.74;100.00
11936;BME280;6027;48.576;9.180;2022-10-16T00:36:53;96774.78;;;15.73;100.00
11936;BME280;6027;48.576;9.180;2022-10-16T00:39:19;96765.75;;;15.74;100.00
11936;BME280;6027;48.576;9.180;2022-10-16T00:41:44;96772.94;;;15.74;100.00
11936;BME280;6027;48.576;9.180;2022-10-16T00:47:24;96767.88;;;15.59;100.00
11936;BME280;6027;48.576;9.180;2022-10-16T00:49:55;96769.75;;;15.52;100.00
11936;BME280;6027;48.576;9.180;2022-10-16T00:52:22;96761.97;;;15.57;100.00
11936;BME280;6027;48.576;9.180;2022-10-16T00:54:49;96767.09;;;15.52;100.00
11936;BME280;6027;48.576;9.180;2022-10-16T00:57:16;96773.03;;;15.54;100.00
11936;BME280;6027;48.576;9.180;2022-10-16T00:59:42;96761.97;;;15.50;100.00
11936;BME280;6027;48.576;9.180;2022-10-16T01:02:11;96766.09;;;15.46;100.00
11936;BME280;6027;48.576;9.180;2022-10-16T01:04:40;96779.44;;;15.46;100.00
11936;BME280;6027;48.576;9.180;2022-10-16T01:12:23;96784.59;;;15.41;100.00
11936;BME280;6027;48.576;9.180;2022-10-16T01:14:59;96787.25;;;15.41;100.00
11936;BME280;6027;48.576;9.180;2022-10-16T01:17:35;96795.72;;;15.38;100.00
11936;BME280;6027;48.576;9.180;2022-10-16T01:20:18;96786.09;;;15.31;100.00
11936;BME280;6027;48.576;9.180;2022-10-16T01:28:17;96793.06;;;15.38;100.00
11936;BME280;6027;48.576;9.180;2022-10-16T01:30:45;96788.53;;;15.39;100.00
11936;BME280;6027;48.576;9.180;2022-10-16T01:33:35;96776.66;;;15.35;100.00
11936;BME280;6027;48.576;9.180;2022-10-16T01:36:08;96773.78;;;15.36;100.00
11936;BME280;6027;48.576;9.180;2022-10-16T01:38:37;96778.72;;;15.33;100.00
11936;BME280;6027;48.576;9.180;2022-10-16T01:41:15;96782.00;;;15.35;100.00
11936;BME280;6027;48.576;9.180;2022-10-16T01:43:47;96788.97;;;15.36;100.00
11936;BME280;6027;48.576;9.180;2022-10-16T01:46:16;96787.31;;;15.35;100.00
11936;BME280;6027;48.576;9.180;2022-10-16T01:48:43;96783.00;;;15.34;100.00
11936;BME280;6027;48.576;9.180;2022-10-16T01:51:12;96783.22;;;15.32;100.00
11936;BME280;6027;48.576;9.180;2022-10-16T01:53:43;96783.44;;;15.31;100.00
11936;BME280;6027;48.576;9.180;2022-10-16T01:56:13;96772.56;;;15.32;100.00
11936;BME280;6027;48.576;9.180;2022-10-16T01:58:45;96776.69;;;15.28;100.00
11936;BME280;6027;48.576;9.180;2022-10-16T02:01:15;96780.59;;;15.26;100.00
11936;BME280;6027;48.576;9.180;2022-10-16T02:03:42;96775.22;;;15.32;100.00
11936;BME280;6027;48.576;9.180;2022-10-16T02:06:09;96785.75;;;15.20;100.00
11936;BME280;6027;48.576;9.180;2022-10-16T02:08:35;96775.94;;;15.14;100.00
11936;BME280;6027;48.576;9.180;2022-10-16T02:11:02;96770.41;;;15.16;100.00
11936;BME280;6027;48.576;9.180;2022-10-16T02:13:35;96774.31;;;15.13;100.00
11936;BME280;6027;48.576;9.180;2022-10-16T02:16:03;96770.22;;;15.11;100.00
11936;BME280;6027;48.576;9.180;2022-10-16T02:18:28;96775.97;;;15.01;100.00
11936;BME280;6027;48.576;9.180;2022-10-16T02:21:02;96778.03;;;15.06;100.00
11936;BME280;6027;48.576;9.180;2022-10-16T02:23:53;96780.47;;;15.14;100.00
11936;BME280;6027;48.576;9.180;2022-10-16T02:26:31;96779.88;;;15.05;100.00
11936;BME280;6027;48.576;9.180;2022-10-16T02:29:07;96786.59;;;15.14;100.00
11936;BME280;6027;48.576;9.180;2022-10-16T02:31:38;96777.78;;;15.14;100.00
11936;BME280;6027;48.576;9.180;2022-10-16T02:34:06;96784.13;;;15.19;100.00
11936;BME280;6027;48.576;9.180;2022-10-16T02:36:35;96779.97;;;15.24;100.00
11936;BME280;6027;48.576;9.180;2022-10-16T02:39:01;96771.16;;;15.23;100.00
11936;BME280;6027;48.576;9.180;2022-10-16T02:41:29;96773.69;;;15.18;100.00
11936;BME280;6027;48.576;9.180;2022-10-16T02:43:54;96773.88;;;15.16;100.00
11936;BME280;6027;48.576;9.180;2022-10-16T02:46:20;96777.81;;;15.07;100.00
11936;BME280;6027;48.576;9.180;2022-10-16T02:48:46;96775.53;;;15.11;100.00
11936;BME280;6027;48.576;9.180;2022-10-16T02:51:11;96785.59;;;15.09;100.00
11936;BME280;6027;48.576;9.180;2022-10-16T02:53:37;96771.03;;;15.11;100.00
11936;BME280;6027;48.576;9.180;2022-10-16T02:56:02;96777.22;;;15.05;100.00
11936;BME280;6027;48.576;9.180;2022-10-16T02:58:28;96776.22;;;15.00;100.00
11936;BME280;6027;48.576;9.180;2022-10-16T03:00:54;96776.59;;;15.03;100.00
11936;BME280;6027;48.576;9.180;2022-10-16T03:03:20;96784.59;;;15.03;100.00
11936;BME280;6027;48.576;9.180;2022-10-16T03:06:05;96786.22;;;15.04;100.00
11936;BME280;6027;48.576;9.180;2022-10-16T03:08:31;96781.09;;;15.03;100.00
11936;BME280;6027;48.576;9.180;2022-10-16T03:10:56;96781.72;;;15.05;100.00
11936;BME280;6027;48.576;9.180;2022-10-16T03:13:22;96780.06;;;15.10;100.00
11936;BME280;6027;48.576;9.180;2022-10-16T03:15:47;96769.00;;;15.07;100.00
11936;BME280;6027;48.576;9.180;2022-10-16T03:18:13;96771.84;;;15.12;100.00
11936;BME280;6027;48.576;9.180;2022-10-16T03:20:38;96777.22;;;15.05;100.00
11936;BME280;6027;48.576;9.180;2022-10-16T03:23:04;96782.31;;;15.07;100.00
11936;BME280;6027;48.576;9.180;2022-10-16T03:25:29;96767.53;;;15.11;100.00
11936;BME280;6027;48.576;9.180;2022-10-16T03:27:54;96775.75;;;15.09;100.00
11936;BME280;6027;48.576;9.180;2022-10-16T03:30:20;96779.72;;;15.00;100.00
11936;BME280;6027;48.576;9.180;2022-10-16T03:32:46;96783.78;;;15.03;100.00
11936;BME280;6027;48.576;9.180;2022-10-16T03:35:12;96784.16;;;15.13;100.00
11936;BME280;6027;48.576;9.180;2022-10-16T03:37:37;96783.72;;;15.16;100.00
11936;BME280;6027;48.576;9.180;2022-10-16T03:40:03;96783.72;;;15.16;100.00
11936;BME280;6027;48.576;9.180;2022-10-16T03:42:29;96784.97;;;15.13;100.00
11936;BME280;6027;48.576;9.180;2022-10-16T03:44:54;96785.59;;;15.15;100.00
11936;BME280;6027;48.576;9.180;2022-10-16T03:47:20;96787.63;;;15.13;100.00
11936;BME280;6027;48.576;9.180;2022-10-16T03:49:48;96778.00;;;15.12;100.00
11936;BME280;6027;48.576;9.180;2022-10-16T03:52:14;96782.13;;;15.08;100.00
11936;BME280;6027;48.576;9.180;2022-10-16T03:54:39;96790.72;;;15.10;100.00
11936;BME280;6027;48.576;9.180;2022-10-16T03:57:04;96800.97;;;15.13;100.00
11936;BME280;6027;48.576;9.180;2022-10-16T03:59:30;96799.16;;;15.07;100.00
11936;BME280;6027;48.576;9.180;2022-10-16T04:01:55;96796.47;;;15.07;100.00
11936;BME280;6027;48.576;9.180;2022-10-16T04:04:21;96796.69;;;15.06;100.00
11936;BME280;6027;48.576;9.180;2022-10-16T04:06:46;96796.06;;;15.10;100.00
11936;BME280;6027;48.576;9.180;2022-10-16T04:09:12;96798.53;;;15.12;100.00
11936;BME280;6027;48.576;9.180;2022-10-16T04:11:37;96798.53;;;15.12;100.00
11936;BME280;6027;48.576;9.180;2022-10-16T04:14:04;96798.31;;;15.07;100.00
11936;BME280;6027;48.576;9.180;2022-10-16T04:16:29;96806.31;;;15.13;100.00
11936;BME280;6027;48.576;9.180;2022-10-16T04:18:54;96797.50;;;15.06;100.00
11936;BME280;6027;48.576;9.180;2022-10-16T04:21:20;96788.91;;;15.04;100.00
11936;BME280;6027;48.576;9.180;2022-10-16T04:23:45;96790.31;;;15.07;100.00
11936;BME280;6027;48.576;9.180;2022-10-16T04:26:11;96798.13;;;15.08;100.00
11936;BME280;6027;48.576;9.180;2022-10-16T04:28:36;96792.19;;;15.06;100.00
11936;BME280;6027;48.576;9.180;2022-10-16T04:31:06;96800.19;;;15.06;100.00
11936;BME280;6027;48.576;9.180;2022-10-16T04:33:32;96802.63;;;15.08;100.00
11936;BME280;6027;48.576;9.180;2022-10-16T04:35:59;96797.09;;;15.09;100.00
11936;BME280;6027;48.576;9.180;2022-10-16T04:38:25;96801.41;;;15.04;100.00
11936;BME280;6027;48.576;9.180;2022-10-16T04:40:51;96791.16;;;15.07;100.00
11936;BME280;6027;48.576;9.180;2022-10-16T04:43:17;96801.38;;;15.10;100.00
11936;BME280;6027;48.576;9.180;2022-10-16T04:45:42;96793.41;;;15.04;100.00
11936;BME280;6027;48.576;9.180;2022-10-16T04:48:08;96791.34;;;15.06;100.00
11936;BME280;6027;48.576;9.180;2022-10-16T04:50:33;96794.88;;;15.00;100.00
11936;BME280;6027;48.576;9.180;2022-10-16T04:52:59;96803.09;;;14.98;100.00
11936;BME280;6027;48.576;9.180;2022-10-16T04:55:24;96802.69;;;14.95;100.00
11936;BME280;6027;48.576;9.180;2022-10-16T04:57:50;96807.81;;;14.96;100.00
11936;BME280;6027;48.576;9.180;2022-10-16T05:00:15;96820.53;;;14.94;100.00
11936;BME280;6027;48.576;9.180;2022-10-16T05:02:41;96810.69;;;14.95;100.00
11936;BME280;6027;48.576;9.180;2022-10-16T05:05:06;96812.13;;;14.97;100.00
11936;BME280;6027;48.576;9.180;2022-10-16T05:07:32;96825.03;;;15.00;100.00
11936;BME280;6027;48.576;9.180;2022-10-16T05:09:57;96829.31;;;15.01;100.00
11936;BME280;6027;48.576;9.180;2022-10-16T05:12:23;96826.06;;;14.99;100.00
11936;BME280;6027;48.576;9.180;2022-10-16T05:14:48;96834.66;;;15.01;100.00
11936;BME280;6027;48.576;9.180;2022-10-16T05:17:14;96823.97;;;15.01;100.00
11936;BME280;6027;48.576;9.180;2022-10-16T05:19:39;96830.78;;;14.97;100.00
11936;BME280;6027;48.576;9.180;2022-10-16T05:22:05;96823.63;;;14.91;100.00
11936;BME280;6027;48.576;9.180;2022-10-16T05:24:30;96823.59;;;14.98;100.00
11936;BME280;6027;48.576;9.180;2022-10-16T05:26:56;96826.28;;;14.91;100.00
11936;BME280;6027;48.576;9.180;2022-10-16T05:29:21;96825.44;;;14.97;100.00
11936;BME280;6027;48.576;9.180;2022-10-16T05:31:50;96826.91;;;14.93;100.00
11936;BME280;6027;48.576;9.180;2022-10-16T05:34:15;96827.31;;;14.97;100.00
11936;BME280;6027;48.576;9.180;2022-10-16T05:36:41;96829.97;;;14.97;100.00
11936;BME280;6027;48.576;9.180;2022-10-16T05:39:06;96831.00;;;14.96;100.00
11936;BME280;6027;48.576;9.180;2022-10-16T05:41:32;96835.50;;;14.95;100.00
11936;BME280;6027;48.576;9.180;2022-10-16T05:43:57;96835.72;;;14.94;100.00
11936;BME280;6027;48.576;9.180;2022-10-16T05:46:23;96824.88;;;14.82;100.00
11936;BME280;6027;48.576;9.180;2022-10-16T05:48:48;96842.53;;;14.76;100.00
11936;BME280;6027;48.576;9.180;2022-10-16T05:51:16;96843.34;;;14.77;100.00
11936;BME280;6027;48.576;9.180;2022-10-16T05:53:41;96853.41;;;14.68;100.00
11936;BME280;6027;48.576;9.180;2022-10-16T05:56:10;96846.03;;;14.77;100.00
11936;BME280;6027;48.576;9.180;2022-10-16T05:58:36;96850.34;;;14.65;100.00
11936;BME280;6027;48.576;9.180;2022-10-16T06:01:05;96846.84;;;14.64;100.00
11936;BME280;6027;48.576;9.180;2022-10-16T06:03:32;96852.38;;;14.69;100.00
11936;BME280;6027;48.576;9.180;2022-10-16T06:05:57;96854.47;;;14.61;100.00
11936;BME280;6027;48.576;9.180;2022-10-16T06:08:23;96860.63;;;14.61;100.00
11936;BME280;6027;48.576;9.180;2022-10-16T06:10:57;96865.94;;;14.61;100.00
11936;BME280;6027;48.576;9.180;2022-10-16T06:13:25;96868.00;;;14.59;100.00
11936;BME280;6027;48.576;9.180;2022-10-16T06:15:50;96870.25;;;14.56;100.00
11936;BME280;6027;48.576;9.180;2022-10-16T06:18:16;96863.66;;;14.65;100.00
11936;BME280;6027;48.576;9.180;2022-10-16T06:20:41;96869.41;;;14.68;100.00
11936;BME280;6027;48.576;9.180;2022-10-16T06:23:07;96876.56;;;14.68;100.00
11936;BME280;6027;48.576;9.180;2022-10-16T06:25:32;96877.38;;;14.68;100.00
11936;BME280;6027;48.576;9.180;2022-10-16T06:27:57;96881.50;;;14.64;100.00
11936;BME280;6027;48.576;9.180;2022-10-16T06:30:23;96877.41;;;14.62;100.00
11936;BME280;6027;48.576;9.180;2022-10-16T06:32:48;96888.09;;;14.62;100.00
11936;BME280;6027;48.576;9.180;2022-10-16T06:35:14;96878.25;;;14.56;100.00
11936;BME280;6027;48.576;9.180;2022-10-16T06:37:39;96879.25;;;14.61;100.00
11936;BME280;6027;48.576;9.180;2022-10-16T06:40:05;96886.00;;;14.70;100.00
11936;BME280;6027;48.576;9.180;2022-10-16T06:42:30;96885.78;;;14.72;100.00
11936;BME280;6027;48.576;9.180;2022-10-16T06:44:56;96902.81;;;14.71;100.00
11936;BME280;6027;48.576;9.180;2022-10-16T06:47:21;96899.94;;;14.66;100.00
11936;BME280;6027;48.576;9.180;2022-10-16T06:49:47;96907.72;;;14.74;100.00
11936;BME280;6027;48.576;9.180;2022-10-16T06:52:12;96902.00;;;14.70;100.00
11936;BME280;6027;48.576;9.180;2022-10-16T06:54:37;96903.22;;;14.81;100.00
11936;BME280;6027;48.576;9.180;2022-10-16T06:57:03;96904.03;;;14.81;100.00
11936;BME280;6027;48.576;9.180;2022-10-16T06:59:28;96903.59;;;14.84;100.00
11936;BME280;6027;48.576;9.180;2022-10-16T07:01:54;96899.91;;;14.92;100.00
11936;BME280;6027;48.576;9.180;2022-10-16T07:04:19;96915.69;;;14.94;100.00
11936;BME280;6027;48.576;9.180;2022-10-16T07:06:44;96918.75;;;14.97;100.00
11936;BME280;6027;48.576;9.180;2022-10-16T07:09:10;96924.28;;;15.02;100.00
11936;BME280;6027;48.576;9.180;2022-10-16T07:11:38;96920.78;;;15.02;100.00
11936;BME280;6027;48.576;9.180;2022-10-16T07:14:04;96922.00;;;15.06;100.00
11936;BME280;6027;48.576;9.180;2022-10-16T07:16:32;96929.81;;;15.07;100.00
11936;BME280;6027;48.576;9.180;2022-10-16T07:18:59;96930.03;;;14.99;100.00
11936;BME280;6027;48.576;9.180;2022-10-16T07:21:27;96937.81;;;15.07;100.00
11936;BME280;6027;48.576;9.180;2022-10-16T07:23:58;96939.44;;;15.02;100.00
11936;BME280;6027;48.576;9.180;2022-10-16T07:26:25;96940.47;;;15.14;100.00
11936;BME280;6027;48.576;9.180;2022-10-16T07:28:51;96953.38;;;15.10;100.00
11936;BME280;6027;48.576;9.180;2022-10-16T07:31:21;96955.03;;;15.11;100.00
11936;BME280;6027;48.576;9.180;2022-10-16T07:33:47;96968.56;;;15.16;100.00
11936;BME280;6027;48.576;9.180;2022-10-16T07:36:14;96967.31;;;15.26;100.00
11936;BME280;6027;48.576;9.180;2022-10-16T07:38:40;96973.25;;;15.28;100.00
11936;BME280;6027;48.576;9.180;2022-10-16T07:41:10;96971.81;;;15.32;100.00
11936;BME280;6027;48.576;9.180;2022-10-16T07:43:36;96975.69;;;15.36;100.00
11936;BME280;6027;48.576;9.180;2022-10-16T07:46:02;96986.16;;;15.37;100.00
11936;BME280;6027;48.576;9.180;2022-10-16T07:48:29;96989.00;;;15.42;100.00
11936;BME280;6027;48.576;9.180;2022-10-16T07:51:03;96976.69;;;15.48;100.00
11936;BME280;6027;48.576;9.180;2022-10-16T07:53:30;96975.22;;;15.52;100.00
11936;BME280;6027;48.576;9.180;2022-10-16T07:56:00;96985.09;;;15.58;100.00
11936;BME280;6027;48.576;9.180;2022-10-16T07:58:27;96996.97;;;15.62;100.00
11936;BME280;6027;48.576;9.180;2022-10-16T08:00:53;96989.59;;;15.64;100.00
11936;BME280;6027;48.576;9.180;2022-10-16T08:03:19;96990.19;;;15.66;100.00
11936;BME280;6027;48.576;9.180;2022-10-16T08:05:44;96997.97;;;15.74;100.00
11936;BME280;6027;48.576;9.180;2022-10-16T08:08:14;97004.97;;;15.69;100.00
11936;BME280;6027;48.576;9.180;2022-10-16T08:10:40;96998.41;;;15.71;100.00
11936;BME280;6027;48.576;9.180;2022-10-16T08:13:05;96997.72;;;15.82;100.00
11936;BME280;6027;48.576;9.180;2022-10-16T08:15:31;97000.19;;;15.84;100.00
11936;BME280;6027;48.576;9.180;2022-10-16T08:18:04;96994.41;;;15.94;100.00
11936;BME280;6027;48.576;9.180;2022-10-16T08:20:32;96990.69;;;15.95;100.00
11936;BME280;6027;48.576;9.180;2022-10-16T08:22:59;97001.19;;;15.89;100.00
11936;BME280;6027;48.576;9.180;2022-10-16T08:25:25;97012.66;;;15.97;100.00
11936;BME280;6027;48.576;9.180;2022-10-16T08:27:51;97010.78;;;16.04;100.00
11936;BME280;6027;48.576;9.180;2022-10-16T08:30:17;97012.63;;;16.03;100.00
11936;BME280;6027;48.576;9.180;2022-10-16T08:32:43;97009.31;;;16.08;100.00
11936;BME280;6027;48.576;9.180;2022-10-16T08:35:10;97021.03;;;16.07;100.00
11936;BME280;6027;48.576;9.180;2022-10-16T08:37:36;97014.25;;;16.11;100.00
11936;BME280;6027;48.576;9.180;2022-10-16T08:40:04;97010.03;;;16.28;100.00
11936;BME280;6027;48.576;9.180;2022-10-16T08:50:32;97029.06;;;16.38;100.00
11936;BME280;6027;48.576;9.180;2022-10-16T08:52:58;97028.66;;;16.41;100.00
11936;BME280;6027;48.576;9.180;2022-10-16T08:55:43;97031.09;;;16.43;100.00
11936;BME280;6027;48.576;9.180;2022-10-16T08:58:16;97027.00;;;16.40;100.00
11936;BME280;6027;48.576;9.180;2022-10-16T09:00:44;97034.16;;;16.46;100.00
11936;BME280;6027;48.576;9.180;2022-10-16T09:14:17;97037.78;;;16.65;100.00
11936;BME280;6027;48.576;9.180;2022-10-16T09:17:18;97054.00;;;16.70;100.00
11936;BME280;6027;48.576;9.180;2022-10-16T09:23:17;97072.00;;;16.81;100.00
11936;BME280;6027;48.576;9.180;2022-10-16T09:25:49;97057.78;;;16.87;100.00
11936;BME280;6027;48.576;9.180;2022-10-16T09:28:17;97060.97;;;16.96;100.00
11936;BME280;6027;48.576;9.180;2022-10-16T09:30:43;97069.34;;;17.06;100.00
11936;BME280;6027;48.576;9.180;2022-10-16T09:33:10;97071.59;;;17.09;100.00
11936;BME280;6027;48.576;9.180;2022-10-16T09:35:40;97062.41;;;17.23;100.00
11936;BME280;6027;48.576;9.180;2022-10-16T09:38:06;97063.91;;;17.38;100.00
11936;BME280;6027;48.576;9.180;2022-10-16T09:40:37;97058.56;;;17.38;100.00
11936;BME280;6027;48.576;9.180;2022-10-16T09:43:12;97060.88;;;17.34;100.00
11936;BME280;6027;48.576;9.180;2022-10-16T09:45:42;97058.13;;;17.41;100.00
11936;BME280;6027;48.576;9.180;2022-10-16T09:48:13;97064.25;;;17.48;100.00
11936;BME280;6027;48.576;9.180;2022-10-16T09:50:38;97058.91;;;17.48;100.00
11936;BME280;6027;48.576;9.180;2022-10-16T09:53:10;97062.41;;;17.48;100.00
11936;BME280;6027;48.576;9.180;2022-10-16T09:55:36;97071.66;;;17.71;100.00
11936;BME280;6027;48.576;9.180;2022-10-16T09:58:01;97064.91;;;17.68;100.00
11936;BME280;6027;48.576;9.180;2022-10-16T10:00:27;97065.25;;;17.72;100.00
11936;BME280;6027;48.576;9.180;2022-10-16T10:02:54;97070.75;;;17.77;100.00
11936;BME280;6027;48.576;9.180;2022-10-16T10:05:25;97075.19;;;17.89;100.00
11936;BME280;6027;48.576;9.180;2022-10-16T10:07:55;97079.25;;;17.92;100.00
11936;BME280;6027;48.576;9.180;2022-10-16T10:10:28;97083.28;;;18.01;100.00
11936;BME280;6027;48.576;9.180;2022-10-16T10:12:54;97077.25;;;18.06;100.00
11936;BME280;6027;48.576;9.180;2022-10-16T10:15:21;97078.72;;;18.20;100.00
11936;BME280;6027;48.576;9.180;2022-10-16T10:17:57;97074.22;;;18.32;100.00
11936;BME280;6027;48.576;9.180;2022-10-16T10:22:51;97073.91;;;18.40;100.00
11936;BME280;6027;48.576;9.180;2022-10-16T10:28:10;97066.50;;;18.54;100.00
11936;BME280;6027;48.576;9.180;2022-10-16T10:31:14;97062.50;;;18.63;100.00
11936;BME280;6027;48.576;9.180;2022-10-16T10:33:57;97068.94;;;18.74;100.00
11936;BME280;6027;48.576;9.180;2022-10-16T10:36:38;97070.13;;;18.78;100.00
11936;BME280;6027;48.576;9.180;2022-10-16T10:44:06;97071.09;;;18.95;100.00
11936;BME280;6027;48.576;9.180;2022-10-16T10:57:38;97065.22;;;19.63;100.00
11936;BME280;6027;48.576;9.180;2022-10-16T11:00:18;97070.81;;;19.73;100.00
11936;BME280;6027;48.576;9.180;2022-10-16T11:02:55;97068.09;;;19.96;100.00
11936;BME280;6027;48.576;9.180;2022-10-16T11:05:43;97066.44;;;20.07;99.03
11936;BME280;6027;48.576;9.180;2022-10-16T11:08:19;97066.78;;;20.11;97.66
11936;BME280;6027;48.576;9.180;2022-10-16T11:15:48;97064.16;;;20.27;92.81
11936;BME280;6027;48.576;9.180;2022-10-16T11:18:20;97061.69;;;20.26;90.63
11936;BME280;6027;48.576;9.180;2022-10-16T11:21:19;97058.44;;;20.24;86.78
11936;BME280;6027;48.576;9.180;2022-10-16T11:23:57;97060.16;;;20.42;81.67
11936;BME280;6027;48.576;9.180;2022-10-16T11:26:30;97053.28;;;20.62;83.58
11936;BME280;6027;48.576;9.180;2022-10-16T11:28:58;97056.31;;;20.66;81.21
11936;BME280;6027;48.576;9.180;2022-10-16T11:31:34;97058.38;;;20.76;82.65
11936;BME280;6027;48.576;9.180;2022-10-16T11:34:09;97050.97;;;20.99;77.41
11936;BME280;6027;48.576;9.180;2022-10-16T11:37:07;97057.09;;;21.12;75.65
11936;BME280;6027;48.576;9.180;2022-10-16T11:39:35;97058.88;;;21.06;73.79
11936;BME280;6027;48.576;9.180;2022-10-16T11:42:09;97053.34;;;21.13;77.16
11936;BME280;6027;48.576;9.180;2022-10-16T11:44:56;97052.44;;;21.07;75.93
11936;BME280;6027;48.576;9.180;2022-10-16T11:50:53;97054.34;;;21.23;72.89
11936;BME280;6027;48.576;9.180;2022-10-16T11:56:19;97051.31;;;21.36;71.80
11936;BME280;6027;48.576;9.180;2022-10-16T12:01:26;97048.00;;;21.29;73.98
11936;BME280;6027;48.576;9.180;2022-10-16T12:06:43;97037.59;;;21.55;73.22
11936;BME280;6027;48.576;9.180;2022-10-16T12:09:17;97039.78;;;21.58;71.58
11936;BME280;6027;48.576;9.180;2022-10-16T12:11:45;97032.72;;;21.52;68.06
11936;BME280;6027;48.576;9.180;2022-10-16T12:16:59;97040.22;;;21.50;70.99
11936;BME280;6027;48.576;9.180;2022-10-16T12:19:28;97037.84;;;21.53;69.12
11936;BME280;6027;48.576;9.180;2022-10-16T12:21:57;97035.69;;;21.55;69.50
11936;BME280;6027;48.576;9.180;2022-10-16T12:24:39;97041.16;;;21.60;68.67
11936;BME280;6027;48.576;9.180;2022-10-16T12:27:40;97044.84;;;21.71;68.46
11936;BME280;6027;48.576;9.180;2022-10-16T12:30:06;97039.56;;;21.81;68.43
11936;BME280;6027;48.576;9.180;2022-10-16T12:32:38;97045.78;;;21.82;69.20
11936;BME280;6027;48.576;9.180;2022-10-16T12:35:16;97047.47;;;21.88;67.86
11936;BME280;6027;48.576;9.180;2022-10-16T12:37:44;97051.31;;;21.92;69.04
11936;BME280;6027;48.576;9.180;2022-10-16T12:40:30;97053.19;;;21.91;68.83
11936;BME280;6027;48.576;9.180;2022-10-16T12:42:56;97053.84;;;21.82;64.82
11936;BME280;6027;48.576;9.180;2022-10-16T12:45:30;97048.22;;;21.83;68.72
11936;BME280;6027;48.576;9.180;2022-10-16T12:48:20;97049.47;;;21.97;69.82
11936;BME280;6027;48.576;9.180;2022-10-16T12:54:10;97048.13;;;22.17;65.53
11936;BME280;6027;48.576;9.180;2022-10-16T13:05:02;97042.59;;;22.50;64.69
11936;BME280;6027;48.576;9.180;2022-10-16T13:07:58;97046.44;;;22.59;66.21
11936;BME280;6027;48.576;9.180;2022-10-16T13:10:56;97050.22;;;22.58;65.65
11936;BME280;6027;48.576;9.180;2022-10-16T13:29:10;97061.06;;;22.15;63.68
11936;BME280;6027;48.576;9.180;2022-10-16T13:31:38;97060.44;;;22.08;64.59
11936;BME280;6027;48.576;9.180;2022-10-16T13:34:05;97066.34;;;22.04;66.57
11936;BME280;6027;48.576;9.180;2022-10-16T13:36:43;97058.50;;;22.03;67.13
11936;BME280;6027;48.576;9.180;2022-10-16T13:39:29;97056.84;;;22.02;68.10
11936;BME280;6027;48.576;9.180;2022-10-16T13:42:03;97059.66;;;21.90;66.21
11936;BME280;6027;48.576;9.180;2022-10-16T13:44:42;97057.19;;;21.89;66.72
11936;BME280;6027;48.576;9.180;2022-10-16T13:47:26;97060.50;;;21.96;66.47
11936;BME280;6027;48.576;9.180;2022-10-16T13:50:10;97059.69;;;21.95;64.58
11936;BME280;6027;48.576;9.180;2022-10-16T13:52:46;97061.06;;;21.98;65.96
11936;BME280;6027;48.576;9.180;2022-10-16T13:55:13;97058.88;;;21.95;66.82
11936;BME280;6027;48.576;9.180;2022-10-16T13:57:39;97057.56;;;21.97;64.83
11936;BME280;6027;48.576;9.180;2022-10-16T14:00:22;97057.19;;;21.89;67.61
11936;BME280;6027;48.576;9.180;2022-10-16T14:03:13;97059.81;;;22.00;65.38
11936;BME280;6027;48.576;9.180;2022-10-16T14:06:00;97057.91;;;22.01;64.55
11936;BME280;6027;48.576;9.180;2022-10-16T14:08:28;97062.97;;;21.97;64.22
11936;BME280;6027;48.576;9.180;2022-10-16T14:10:57;97066.56;;;22.03;63.11
11936;BME280;6027;48.576;9.180;2022-10-16T14:13:39;97061.50;;;22.07;64.29
11936;BME280;6027;48.576;9.180;2022-10-16T14:16:11;97060.63;;;22.01;63.28
11936;BME280;6027;48.576;9.180;2022-10-16T14:18:41;97057.00;;;21.95;63.76
11936;BME280;6027;48.576;9.180;2022-10-16T14:21:11;97064.53;;;21.93;62.36
11936;BME280;6027;48.576;9.180;2022-10-16T14:23:39;97066.91;;;21.90;63.05
11936;BME280;6027;48.576;9.180;2022-10-16T14:28:34;97067.66;;;21.85;66.02
11936;BME280;6027;48.576;9.180;2022-10-16T14:31:03;97061.44;;;21.85;65.77
11936;BME280;6027;48.576;9.180;2022-10-16T14:33:46;97062.44;;;21.79;64.59
11936;BME280;6027;48.576;9.180;2022-10-16T14:36:16;97057.53;;;21.76;64.71
11936;BME280;6027;48.576;9.180;2022-10-16T14:41:22;97061.31;;;21.75;67.05
11936;BME280;6027;48.576;9.180;2022-10-16T14:43:52;97065.94;;;21.79;66.84
11936;BME280;6027;48.576;9.180;2022-10-16T14:46:21;97072.41;;;21.78;67.68
11936;BME280;6027;48.576;9.180;2022-10-16T14:48:54;97071.34;;;21.79;68.46
11936;BME280;6027;48.576;9.180;2022-10-16T14:51:22;97073.47;;;21.77;69.53
11936;BME280;6027;48.576;9.180;2022-10-16T14:53:49;97076.97;;;21.78;68.97
11936;BME280;6027;48.576;9.180;2022-10-16T14:56:24;97079.44;;;21.79;68.84
11936;BME280;6027;48.576;9.180;2022-10-16T14:58:51;97079.09;;;21.76;67.92
11936;BME280;6027;48.576;9.180;2022-10-16T15:01:17;97077.66;;;21.68;67.51
11936;BME280;6027;48.576;9.180;2022-10-16T15:03:43;97078.56;;;21.74;67.54